createdAt,value
2023-03-23T15:59:59.218Z,98853.23
2023-03-23T16:03:08.484Z,98868.48
2023-03-23T16:06:24.957Z,98873.44
2023-03-23T16:09:31.760Z,98874.90
2023-03-23T16:12:35.389Z,98888.36
2023-03-23T16:15:42.984Z,98879.41
2023-03-23T16:18:47.368Z,98876.38
2023-03-23T16:21:51.124Z,98879.73
2023-03-23T16:24:57.789Z,98883.59
2023-03-23T16:28:06.648Z,98879.26
2023-03-23T16:31:11.414Z,98893.05
2023-03-23T16:34:16.426Z,98887.55
2023-03-23T16:37:22.639Z,98889.02
2023-03-23T16:40:27.842Z,98892.98
2023-03-23T16:43:32.221Z,98894.58
2023-03-23T16:46:36.398Z,98894.38
2023-03-23T16:49:40.885Z,98892.08
2023-03-23T16:52:48.200Z,98897.52
2023-03-23T16:55:55.276Z,98907.89
2023-03-23T16:59:02.241Z,98903.86
2023-03-23T17:02:06.874Z,98901.58
2023-03-23T17:05:12.343Z,98905.28
2023-03-23T17:08:20.283Z,98919.76
2023-03-23T17:11:23.008Z,98923.93
2023-03-23T17:14:25.878Z,98927.00
2023-03-23T17:17:29.294Z,98922.24
2023-03-23T17:20:32.085Z,98910.43
2023-03-23T17:23:34.983Z,98907.72
2023-03-23T17:26:47.730Z,98916.10
2023-03-23T17:29:50.657Z,98929.06
2023-03-23T17:32:54.177Z,98937.67
2023-03-23T17:35:56.929Z,98939.17
2023-03-23T17:38:59.760Z,98934.73
2023-03-23T17:42:04.054Z,98932.48
2023-03-23T17:45:09.033Z,98931.80
2023-03-23T17:48:11.875Z,98938.76
2023-03-23T17:51:14.955Z,98947.93
2023-03-23T17:54:19.343Z,98946.98
2023-03-23T17:57:22.061Z,98952.20
2023-03-23T18:00:25.704Z,98947.18
2023-03-23T18:03:28.687Z,98957.44
2023-03-23T18:06:32.802Z,98967.95
2023-03-23T18:09:36.005Z,98974.93
2023-03-23T18:12:40.203Z,98962.94
2023-03-23T18:15:46.675Z,98951.59
2023-03-23T18:18:49.891Z,98952.46
2023-03-23T18:21:52.760Z,98955.95
2023-03-23T18:24:55.885Z,98955.30
2023-03-23T18:28:04.578Z,98946.71
2023-03-23T18:31:13.202Z,98950.77
2023-03-23T18:34:16.076Z,98955.55
2023-03-23T18:38:15.105Z,98951.82
2023-03-23T18:41:33.771Z,98959.76
2023-03-23T18:44:36.568Z,98959.33
2023-03-23T18:47:40.091Z,98954.69
2023-03-23T18:50:50.011Z,98959.89
2023-03-23T18:53:52.608Z,98949.15
2023-03-23T18:56:55.755Z,98948.91
2023-03-23T19:00:04.908Z,98946.64
2023-03-23T19:03:08.289Z,98936.59
2023-03-23T19:06:21.370Z,98940.82
2023-03-23T19:09:24.423Z,98943.89
2023-03-23T19:12:27.253Z,98937.87
2023-03-23T19:15:29.961Z,98937.16
2023-03-23T19:18:33.256Z,98937.83
2023-03-23T19:21:37.652Z,98945.71
2023-03-23T19:24:40.515Z,98948.86
2023-03-23T19:28:27.558Z,98959.85
2023-03-23T19:31:07.055Z,98965.27
2023-03-23T19:34:09.824Z,98974.73
2023-03-23T19:37:18.803Z,98982.07
2023-03-23T19:40:37.465Z,98975.40
2023-03-23T19:43:43.916Z,98978.72
2023-03-23T19:46:49.702Z,98980.81
2023-03-23T19:49:52.337Z,98966.89
2023-03-23T19:52:58.683Z,98970.91
2023-03-23T19:56:05.137Z,98970.74
2023-03-23T19:59:10.699Z,98964.25
2023-03-23T20:02:14.791Z,98972.56
2023-03-23T20:05:18.076Z,98969.90
2023-03-23T20:08:21.124Z,98971.81
2023-03-23T20:11:24.014Z,98981.61
2023-03-23T20:14:27.174Z,98983.55
2023-03-23T20:17:29.847Z,98987.65
2023-03-23T20:20:33.855Z,98984.73
2023-03-23T20:23:38.393Z,98987.83
2023-03-23T20:26:43.742Z,98985.17
2023-03-23T20:29:46.550Z,98996.41
2023-03-23T20:32:49.335Z,99004.19
2023-03-23T20:35:52.094Z,99003.67
2023-03-23T20:38:54.709Z,99003.27
2023-03-23T20:42:00.745Z,98998.77
2023-03-23T20:45:05.285Z,98998.60
2023-03-23T20:48:09.755Z,99001.20
2023-03-23T20:51:12.995Z,99003.58
2023-03-23T20:54:18.647Z,99004.28
2023-03-23T20:57:22.505Z,99007.70
2023-03-23T21:00:28.143Z,99011.36
2023-03-23T21:03:39.316Z,99006.91
2023-03-23T21:06:44.695Z,99005.73
2023-03-23T21:09:48.067Z,99002.77
2023-03-23T21:12:51.009Z,99001.61
2023-03-23T21:15:54.304Z,99008.95
2023-03-23T21:18:57.194Z,99009.58
2023-03-23T21:22:00.000Z,99010.00
2023-03-23T21:25:04.768Z,99003.23
2023-03-23T21:28:08.999Z,98995.48
2023-03-23T21:31:12.475Z,99003.77
2023-03-23T21:34:15.224Z,99004.08
2023-03-23T21:37:17.804Z,99000.48
2023-03-23T21:40:21.487Z,99005.77
2023-03-23T21:43:40.869Z,99005.91
2023-03-23T21:46:46.304Z,99006.47
2023-03-23T21:49:52.871Z,99011.39
2023-03-23T21:52:57.849Z,99012.46
2023-03-23T21:56:09.629Z,99007.52
2023-03-23T21:59:14.899Z,98999.38
2023-03-23T22:02:31.186Z,98999.15
2023-03-23T22:05:47.202Z,99000.85
2023-03-23T22:09:06.154Z,98996.27
2023-03-23T22:12:15.063Z,98995.86
2023-03-23T22:15:33.674Z,98998.86
2023-03-23T22:18:49.934Z,98994.94
2023-03-23T22:21:58.944Z,99000.25
2023-03-23T22:25:12.006Z,98986.38
2023-03-23T22:28:28.642Z,98987.94
2023-03-23T22:32:47.731Z,98987.88
2023-03-23T22:35:06.413Z,98978.89
2023-03-23T22:38:18.845Z,98964.77
2023-03-23T22:41:33.989Z,98959.79
2023-03-23T22:44:37.268Z,98959.33
2023-03-23T22:47:40.107Z,98955.19
2023-03-23T22:50:43.400Z,98956.38
2023-03-23T22:53:47.259Z,98948.75
2023-03-23T22:56:50.295Z,98949.36
2023-03-23T22:59:52.990Z,98950.91
2023-03-23T23:02:58.603Z,98948.77
2023-03-23T23:06:01.885Z,98936.91
2023-03-23T23:09:04.942Z,98942.20
2023-03-23T23:12:08.865Z,98934.71
2023-03-23T23:15:12.945Z,98940.48
2023-03-23T23:18:16.262Z,98934.34
2023-03-23T23:21:22.796Z,98939.17
2023-03-23T23:24:26.637Z,98940.51
2023-03-23T23:27:29.372Z,98938.63
2023-03-23T23:30:32.717Z,98941.71
2023-03-23T23:33:35.376Z,98934.36
2023-03-23T23:36:38.447Z,98934.64
2023-03-23T23:39:41.421Z,98928.89
2023-03-23T23:42:46.421Z,98929.70
2023-03-23T23:45:49.045Z,98930.13
2023-03-23T23:48:52.177Z,98929.45
2023-03-23T23:51:56.778Z,98925.13
2023-03-23T23:55:01.083Z,98922.66
2023-03-23T23:58:04.545Z,98923.58
